sensor_id;sensor_type;location;lat;lon;timestamp;temperature;humidity
62154;DHT22;48140;45.486;9.226;2022-10-24T00:01:22;18.90;99.90
62154;DHT22;48140;45.486;9.226;2022-10-24T00:03:48;18.80;99.90
62154;DHT22;48140;45.486;9.226;2022-10-24T00:06:14;18.80;99.90
62154;DHT22;48140;45.486;9.226;2022-10-24T00:08:40;18.80;99.90
62154;DHT22;48140;45.486;9.226;2022-10-24T00:11:11;18.80;99.90
62154;DHT22;48140;45.486;9.226;2022-10-24T00:13:40;18.80;99.90
62154;DHT22;48140;45.486;9.226;2022-10-24T00:16:16;18.70;99.90
62154;DHT22;48140;45.486;9.226;2022-10-24T00:18:44;18.70;99.90
62154;DHT22;48140;45.486;9.226;2022-10-24T00:21:11;18.70;99.90
62154;DHT22;48140;45.486;9.226;2022-10-24T00:23:39;18.70;99.90
62154;DHT22;48140;45.486;9.226;2022-10-24T00:26:07;18.80;99.90
62154;DHT22;48140;45.486;9.226;2022-10-24T00:28:34;18.80;99.90
62154;DHT22;48140;45.486;9.226;2022-10-24T00:31:04;18.70;99.90
62154;DHT22;48140;45.486;9.226;2022-10-24T00:33:31;18.70;99.90
62154;DHT22;48140;45.486;9.226;2022-10-24T00:35:57;18.70;99.90
62154;DHT22;48140;45.486;9.226;2022-10-24T00:38:25;18.70;99.90
62154;DHT22;48140;45.486;9.226;2022-10-24T00:40:50;18.70;99.90
62154;DHT22;48140;45.486;9.226;2022-10-24T00:43:18;18.70;99.90
62154;DHT22;48140;45.486;9.226;2022-10-24T00:45:46;18.70;99.90
62154;DHT22;48140;45.486;9.226;2022-10-24T00:50:57;18.70;99.90
62154;DHT22;48140;45.486;9.226;2022-10-24T00:53:25;18.70;99.90
62154;DHT22;48140;45.486;9.226;2022-10-24T00:55:52;18.60;99.90
62154;DHT22;48140;45.486;9.226;2022-10-24T00:58:20;18.60;99.90
62154;DHT22;48140;45.486;9.226;2022-10-24T01:00:53;18.70;99.90
62154;DHT22;48140;45.486;9.226;2022-10-24T01:03:23;18.60;99.90
62154;DHT22;48140;45.486;9.226;2022-10-24T01:22:20;18.50;99.90
62154;DHT22;48140;45.486;9.226;2022-10-24T01:28:02;18.50;99.90
62154;DHT22;48140;45.486;9.226;2022-10-24T01:30:44;18.50;99.90
62154;DHT22;48140;45.486;9.226;2022-10-24T01:33:13;18.40;99.90
62154;DHT22;48140;45.486;9.226;2022-10-24T01:35:51;18.50;99.90
62154;DHT22;48140;45.486;9.226;2022-10-24T01:38:26;18.50;99.90
62154;DHT22;48140;45.486;9.226;2022-10-24T01:41:36;18.40;99.90
62154;DHT22;48140;45.486;9.226;2022-10-24T01:43:50;18.40;99.90
62154;DHT22;48140;45.486;9.226;2022-10-24T01:46:25;18.40;99.90
62154;DHT22;48140;45.486;9.226;2022-10-24T01:48:54;18.40;99.90
62154;DHT22;48140;45.486;9.226;2022-10-24T01:51:22;18.30;99.90
62154;DHT22;48140;45.486;9.226;2022-10-24T01:53:49;18.30;99.90
62154;DHT22;48140;45.486;9.226;2022-10-24T01:56:15;18.30;99.90
62154;DHT22;48140;45.486;9.226;2022-10-24T01:58:41;18.30;99.90
62154;DHT22;48140;45.486;9.226;2022-10-24T02:01:09;18.30;99.90
62154;DHT22;48140;45.486;9.226;2022-10-24T02:03:43;18.30;99.90
62154;DHT22;48140;45.486;9.226;2022-10-24T02:06:15;18.30;99.90
62154;DHT22;48140;45.486;9.226;2022-10-24T02:08:46;18.30;99.90
62154;DHT22;48140;45.486;9.226;2022-10-24T02:11:14;18.10;99.90
62154;DHT22;48140;45.486;9.226;2022-10-24T02:13:54;18.10;99.90
62154;DHT22;48140;45.486;9.226;2022-10-24T02:16:21;18.10;99.90
62154;DHT22;48140;45.486;9.226;2022-10-24T02:18:48;18.10;99.90
62154;DHT22;48140;45.486;9.226;2022-10-24T02:21:30;18.10;99.90
62154;DHT22;48140;45.486;9.226;2022-10-24T02:24:05;18.00;99.90
62154;DHT22;48140;45.486;9.226;2022-10-24T02:26:56;18.10;99.90
62154;DHT22;48140;45.486;9.226;2022-10-24T02:29:39;18.00;99.90
62154;DHT22;48140;45.486;9.226;2022-10-24T02:32:29;18.00;99.90
62154;DHT22;48140;45.486;9.226;2022-10-24T02:34:56;18.00;99.90
62154;DHT22;48140;45.486;9.226;2022-10-24T02:37:23;18.00;99.90
62154;DHT22;48140;45.486;9.226;2022-10-24T02:39:49;17.90;99.90
62154;DHT22;48140;45.486;9.226;2022-10-24T02:42:16;17.90;99.90
62154;DHT22;48140;45.486;9.226;2022-10-24T02:44:43;17.90;99.90
62154;DHT22;48140;45.486;9.226;2022-10-24T02:47:12;17.70;99.90
62154;DHT22;48140;45.486;9.226;2022-10-24T02:49:45;17.90;99.90
62154;DHT22;48140;45.486;9.226;2022-10-24T02:52:13;17.80;99.90
62154;DHT22;48140;45.486;9.226;2022-10-24T02:54:39;17.90;99.90
62154;DHT22;48140;45.486;9.226;2022-10-24T02:57:05;17.80;99.90
62154;DHT22;48140;45.486;9.226;2022-10-24T03:02:18;17.80;99.90
62154;DHT22;48140;45.486;9.226;2022-10-24T03:04:50;17.70;99.90
62154;DHT22;48140;45.486;9.226;2022-10-24T03:07:19;17.60;99.90
62154;DHT22;48140;45.486;9.226;2022-10-24T03:09:52;17.60;99.90
62154;DHT22;48140;45.486;9.226;2022-10-24T03:12:24;17.60;99.90
62154;DHT22;48140;45.486;9.226;2022-10-24T03:14:50;17.50;99.90
62154;DHT22;48140;45.486;9.226;2022-10-24T03:17:19;17.50;99.90
62154;DHT22;48140;45.486;9.226;2022-10-24T03:19:47;17.50;99.90
62154;DHT22;48140;45.486;9.226;2022-10-24T03:22:14;17.40;99.90
62154;DHT22;48140;45.486;9.226;2022-10-24T03:24:41;17.40;99.90
62154;DHT22;48140;45.486;9.226;2022-10-24T03:27:08;17.40;99.90
62154;DHT22;48140;45.486;9.226;2022-10-24T03:29:33;17.50;99.90
62154;DHT22;48140;45.486;9.226;2022-10-24T03:31:59;17.40;99.90
62154;DHT22;48140;45.486;9.226;2022-10-24T03:34:32;17.50;99.90
62154;DHT22;48140;45.486;9.226;2022-10-24T03:36:58;17.40;99.90
62154;DHT22;48140;45.486;9.226;2022-10-24T03:39:24;17.50;99.90
62154;DHT22;48140;45.486;9.226;2022-10-24T03:41:49;17.50;99.90
62154;DHT22;48140;45.486;9.226;2022-10-24T03:44:18;17.50;99.90
62154;DHT22;48140;45.486;9.226;2022-10-24T03:46:49;17.50;99.90
62154;DHT22;48140;45.486;9.226;2022-10-24T03:49:26;17.50;99.90
62154;DHT22;48140;45.486;9.226;2022-10-24T03:51:52;17.50;99.90
62154;DHT22;48140;45.486;9.226;2022-10-24T03:54:17;17.50;99.90
62154;DHT22;48140;45.486;9.226;2022-10-24T03:56:43;17.50;99.90
62154;DHT22;48140;45.486;9.226;2022-10-24T03:59:13;17.50;99.90
62154;DHT22;48140;45.486;9.226;2022-10-24T04:01:48;17.50;99.90
62154;DHT22;48140;45.486;9.226;2022-10-24T04:04:32;17.50;99.90
62154;DHT22;48140;45.486;9.226;2022-10-24T04:07:09;17.50;99.90
62154;DHT22;48140;45.486;9.226;2022-10-24T04:09:36;17.50;99.90
62154;DHT22;48140;45.486;9.226;2022-10-24T04:12:04;17.50;99.90
62154;DHT22;48140;45.486;9.226;2022-10-24T04:14:34;17.50;99.90
62154;DHT22;48140;45.486;9.226;2022-10-24T04:17:01;17.50;99.90
62154;DHT22;48140;45.486;9.226;2022-10-24T04:19:33;17.50;99.90
62154;DHT22;48140;45.486;9.226;2022-10-24T04:21:58;17.50;99.90
62154;DHT22;48140;45.486;9.226;2022-10-24T04:24:25;17.50;99.90
62154;DHT22;48140;45.486;9.226;2022-10-24T04:26:51;17.40;99.90
62154;DHT22;48140;45.486;9.226;2022-10-24T04:29:18;17.40;99.90
62154;DHT22;48140;45.486;9.226;2022-10-24T04:31:44;17.40;99.90
62154;DHT22;48140;45.486;9.226;2022-10-24T04:34:10;17.40;99.90
62154;DHT22;48140;45.486;9.226;2022-10-24T04:52:07;17.40;99.90
62154;DHT22;48140;45.486;9.226;2022-10-24T04:54:33;17.30;99.90
62154;DHT22;48140;45.486;9.226;2022-10-24T04:56:59;17.30;99.90
62154;DHT22;48140;45.486;9.226;2022-10-24T04:59:24;17.30;99.90
62154;DHT22;48140;45.486;9.226;2022-10-24T05:01:50;17.30;99.90
62154;DHT22;48140;45.486;9.226;2022-10-24T05:04:15;17.40;99.90
62154;DHT22;48140;45.486;9.226;2022-10-24T05:06:43;17.30;99.90
62154;DHT22;48140;45.486;9.226;2022-10-24T05:09:15;17.30;99.90
62154;DHT22;48140;45.486;9.226;2022-10-24T05:11:45;17.40;99.90
62154;DHT22;48140;45.486;9.226;2022-10-24T05:14:11;17.30;99.90
62154;DHT22;48140;45.486;9.226;2022-10-24T05:16:41;17.30;99.90
62154;DHT22;48140;45.486;9.226;2022-10-24T05:19:07;17.30;99.90
62154;DHT22;48140;45.486;9.226;2022-10-24T05:21:35;17.40;99.90
62154;DHT22;48140;45.486;9.226;2022-10-24T05:24:04;17.50;99.90
62154;DHT22;48140;45.486;9.226;2022-10-24T05:26:30;17.50;99.90
62154;DHT22;48140;45.486;9.226;2022-10-24T05:28:55;17.40;99.90
62154;DHT22;48140;45.486;9.226;2022-10-24T05:37:10;17.30;99.90
62154;DHT22;48140;45.486;9.226;2022-10-24T05:39:35;17.20;99.90
62154;DHT22;48140;45.486;9.226;2022-10-24T05:44:48;17.20;99.90
62154;DHT22;48140;45.486;9.226;2022-10-24T05:47:16;17.20;99.90
62154;DHT22;48140;45.486;9.226;2022-10-24T05:49:44;17.10;99.90
62154;DHT22;48140;45.486;9.226;2022-10-24T05:52:31;17.10;99.90
62154;DHT22;48140;45.486;9.226;2022-10-24T05:55:09;17.10;99.90
62154;DHT22;48140;45.486;9.226;2022-10-24T05:57:44;17.10;99.90
62154;DHT22;48140;45.486;9.226;2022-10-24T06:00:27;17.20;99.90
62154;DHT22;48140;45.486;9.226;2022-10-24T06:02:59;17.10;99.90
62154;DHT22;48140;45.486;9.226;2022-10-24T06:05:48;17.20;99.90
62154;DHT22;48140;45.486;9.226;2022-10-24T06:08:25;17.20;99.90
62154;DHT22;48140;45.486;9.226;2022-10-24T06:11:18;17.20;99.90
62154;DHT22;48140;45.486;9.226;2022-10-24T06:13:45;17.20;99.90
62154;DHT22;48140;45.486;9.226;2022-10-24T06:16:11;17.20;99.90
62154;DHT22;48140;45.486;9.226;2022-10-24T06:18:38;17.10;99.90
62154;DHT22;48140;45.486;9.226;2022-10-24T06:21:04;17.10;99.90
62154;DHT22;48140;45.486;9.226;2022-10-24T06:23:30;17.10;99.90
62154;DHT22;48140;45.486;9.226;2022-10-24T06:26:44;17.10;99.90
62154;DHT22;48140;45.486;9.226;2022-10-24T06:29:04;17.10;99.90
62154;DHT22;48140;45.486;9.226;2022-10-24T06:31:30;17.10;99.90
62154;DHT22;48140;45.486;9.226;2022-10-24T06:36:32;17.10;99.90
62154;DHT22;48140;45.486;9.226;2022-10-24T06:39:05;17.10;99.90
62154;DHT22;48140;45.486;9.226;2022-10-24T06:41:30;17.20;99.90
62154;DHT22;48140;45.486;9.226;2022-10-24T06:43:59;17.20;99.90
62154;DHT22;48140;45.486;9.226;2022-10-24T06:46:26;17.30;99.90
62154;DHT22;48140;45.486;9.226;2022-10-24T06:48:54;17.40;99.90
62154;DHT22;48140;45.486;9.226;2022-10-24T06:51:19;17.60;99.90
62154;DHT22;48140;45.486;9.226;2022-10-24T06:53:47;17.70;99.90
62154;DHT22;48140;45.486;9.226;2022-10-24T06:56:13;17.80;99.90
62154;DHT22;48140;45.486;9.226;2022-10-24T06:58:53;17.80;99.90
62154;DHT22;48140;45.486;9.226;2022-10-24T07:01:21;17.90;99.90
62154;DHT22;48140;45.486;9.226;2022-10-24T07:04:11;17.90;99.90
62154;DHT22;48140;45.486;9.226;2022-10-24T07:06:37;18.00;99.90
62154;DHT22;48140;45.486;9.226;2022-10-24T07:09:03;18.00;99.90
62154;DHT22;48140;45.486;9.226;2022-10-24T07:11:32;17.90;99.90
62154;DHT22;48140;45.486;9.226;2022-10-24T07:13:58;17.90;99.90
62154;DHT22;48140;45.486;9.226;2022-10-24T07:16:45;18.00;99.90
62154;DHT22;48140;45.486;9.226;2022-10-24T07:19:10;18.00;99.90
62154;DHT22;48140;45.486;9.226;2022-10-24T07:21:35;18.00;99.90
62154;DHT22;48140;45.486;9.226;2022-10-24T07:24:02;18.00;99.90
62154;DHT22;48140;45.486;9.226;2022-10-24T07:26:28;18.10;99.90
62154;DHT22;48140;45.486;9.226;2022-10-24T07:28:55;18.20;99.90
62154;DHT22;48140;45.486;9.226;2022-10-24T07:31:23;18.30;99.90
62154;DHT22;48140;45.486;9.226;2022-10-24T07:33:50;18.40;99.90
62154;DHT22;48140;45.486;9.226;2022-10-24T07:36:23;18.40;99.90
62154;DHT22;48140;45.486;9.226;2022-10-24T07:38:49;18.50;99.90
62154;DHT22;48140;45.486;9.226;2022-10-24T07:41:18;18.60;99.90
62154;DHT22;48140;45.486;9.226;2022-10-24T07:43:44;18.60;99.90
62154;DHT22;48140;45.486;9.226;2022-10-24T07:46:11;18.70;99.90
62154;DHT22;48140;45.486;9.226;2022-10-24T07:48:37;18.70;99.90
62154;DHT22;48140;45.486;9.226;2022-10-24T07:51:05;18.50;99.90
62154;DHT22;48140;45.486;9.226;2022-10-24T07:53:31;18.50;99.90
62154;DHT22;48140;45.486;9.226;2022-10-24T07:55:57;18.60;99.90
62154;DHT22;48140;45.486;9.226;2022-10-24T07:58:24;18.50;99.90
62154;DHT22;48140;45.486;9.226;2022-10-24T08:00:55;18.50;99.90
62154;DHT22;48140;45.486;9.226;2022-10-24T08:03:26;18.50;99.90
62154;DHT22;48140;45.486;9.226;2022-10-24T08:05:52;18.50;99.90
62154;DHT22;48140;45.486;9.226;2022-10-24T08:08:21;18.40;99.90
62154;DHT22;48140;45.486;9.226;2022-10-24T08:10:47;18.40;99.90
62154;DHT22;48140;45.486;9.226;2022-10-24T08:13:12;18.50;99.90
62154;DHT22;48140;45.486;9.226;2022-10-24T08:15:38;18.50;99.90
62154;DHT22;48140;45.486;9.226;2022-10-24T08:18:03;18.50;99.90
62154;DHT22;48140;45.486;9.226;2022-10-24T08:20:29;18.60;99.90
62154;DHT22;48140;45.486;9.226;2022-10-24T08:22:54;18.60;99.90
62154;DHT22;48140;45.486;9.226;2022-10-24T08:25:20;18.50;99.90
62154;DHT22;48140;45.486;9.226;2022-10-24T08:27:49;18.50;99.90
62154;DHT22;48140;45.486;9.226;2022-10-24T08:30:15;18.50;99.90
62154;DHT22;48140;45.486;9.226;2022-10-24T08:32:42;18.50;99.90
62154;DHT22;48140;45.486;9.226;2022-10-24T08:35:25;18.50;99.90
62154;DHT22;48140;45.486;9.226;2022-10-24T08:38:20;18.50;99.90
62154;DHT22;48140;45.486;9.226;2022-10-24T08:40:56;18.60;99.90
62154;DHT22;48140;45.486;9.226;2022-10-24T08:43:22;18.60;99.90
62154;DHT22;48140;45.486;9.226;2022-10-24T08:48:18;18.60;99.90
62154;DHT22;48140;45.486;9.226;2022-10-24T08:50:46;18.70;99.90
62154;DHT22;48140;45.486;9.226;2022-10-24T08:53:28;18.80;99.90
62154;DHT22;48140;45.486;9.226;2022-10-24T08:55:57;18.80;99.90
62154;DHT22;48140;45.486;9.226;2022-10-24T08:58:44;18.80;99.90
62154;DHT22;48140;45.486;9.226;2022-10-24T09:04:30;18.90;99.90
62154;DHT22;48140;45.486;9.226;2022-10-24T09:13:31;18.90;99.90
62154;DHT22;48140;45.486;9.226;2022-10-24T09:21:55;18.90;99.90
62154;DHT22;48140;45.486;9.226;2022-10-24T09:27:57;19.00;99.90
62154;DHT22;48140;45.486;9.226;2022-10-24T09:30:26;19.10;99.90
62154;DHT22;48140;45.486;9.226;2022-10-24T09:58:44;19.30;99.90
62154;DHT22;48140;45.486;9.226;2022-10-24T10:07:08;19.50;99.90
62154;DHT22;48140;45.486;9.226;2022-10-24T10:09:35;19.70;99.90
62154;DHT22;48140;45.486;9.226;2022-10-24T10:12:23;19.80;99.90
62154;DHT22;48140;45.486;9.226;2022-10-24T10:14:55;19.90;99.90
62154;DHT22;48140;45.486;9.226;2022-10-24T10:17:33;20.00;99.90
62154;DHT22;48140;45.486;9.226;2022-10-24T10:19:59;20.00;99.90
62154;DHT22;48140;45.486;9.226;2022-10-24T10:22:29;20.20;99.90
62154;DHT22;48140;45.486;9.226;2022-10-24T10:24:56;20.20;99.90
62154;DHT22;48140;45.486;9.226;2022-10-24T10:27:38;20.30;99.80
62154;DHT22;48140;45.486;9.226;2022-10-24T10:30:18;20.30;99.90
62154;DHT22;48140;45.486;9.226;2022-10-24T10:40:52;20.20;99.90
62154;DHT22;48140;45.486;9.226;2022-10-24T10:46:38;20.50;99.20
62154;DHT22;48140;45.486;9.226;2022-10-24T10:49:20;20.80;98.30
62154;DHT22;48140;45.486;9.226;2022-10-24T10:52:02;20.80;97.90
62154;DHT22;48140;45.486;9.226;2022-10-24T10:57:55;20.80;97.50
62154;DHT22;48140;45.486;9.226;2022-10-24T11:09:50;21.10;97.00
62154;DHT22;48140;45.486;9.226;2022-10-24T11:15:05;21.80;95.10
62154;DHT22;48140;45.486;9.226;2022-10-24T11:31:53;27.30;71.90
62154;DHT22;48140;45.486;9.226;2022-10-24T11:34:24;27.80;68.80
62154;DHT22;48140;45.486;9.226;2022-10-24T11:36:54;28.20;67.20
62154;DHT22;48140;45.486;9.226;2022-10-24T11:42:11;28.10;65.90
62154;DHT22;48140;45.486;9.226;2022-10-24T11:45:27;27.70;67.60
62154;DHT22;48140;45.486;9.226;2022-10-24T11:49:57;27.60;68.10
62154;DHT22;48140;45.486;9.226;2022-10-24T11:52:26;28.40;65.40
62154;DHT22;48140;45.486;9.226;2022-10-24T11:57:38;28.80;62.50
62154;DHT22;48140;45.486;9.226;2022-10-24T12:00:10;28.90;61.70
62154;DHT22;48140;45.486;9.226;2022-10-24T12:18:22;31.20;53.50
62154;DHT22;48140;45.486;9.226;2022-10-24T12:20:53;31.10;52.90
62154;DHT22;48140;45.486;9.226;2022-10-24T12:23:24;30.90;53.30
62154;DHT22;48140;45.486;9.226;2022-10-24T12:26:07;30.60;53.30
62154;DHT22;48140;45.486;9.226;2022-10-24T12:28:49;30.40;53.50
62154;DHT22;48140;45.486;9.226;2022-10-24T12:31:20;30.10;54.60
62154;DHT22;48140;45.486;9.226;2022-10-24T12:34:29;29.90;55.40
62154;DHT22;48140;45.486;9.226;2022-10-24T12:39:27;29.00;58.50
62154;DHT22;48140;45.486;9.226;2022-10-24T12:41:56;28.10;61.10
62154;DHT22;48140;45.486;9.226;2022-10-24T12:47:30;28.20;60.70
62154;DHT22;48140;45.486;9.226;2022-10-24T12:57:55;29.30;58.00
62154;DHT22;48140;45.486;9.226;2022-10-24T13:00:23;29.30;58.50
62154;DHT22;48140;45.486;9.226;2022-10-24T13:08:20;30.40;53.30
62154;DHT22;48140;45.486;9.226;2022-10-24T13:11:05;29.60;54.80
62154;DHT22;48140;45.486;9.226;2022-10-24T13:13:52;28.50;58.60
62154;DHT22;48140;45.486;9.226;2022-10-24T13:16:41;27.70;61.60
62154;DHT22;48140;45.486;9.226;2022-10-24T13:19:11;27.00;63.80
62154;DHT22;48140;45.486;9.226;2022-10-24T13:26:41;25.60;70.20
62154;DHT22;48140;45.486;9.226;2022-10-24T13:31:48;25.20;71.20
62154;DHT22;48140;45.486;9.226;2022-10-24T13:34:22;25.20;71.40
62154;DHT22;48140;45.486;9.226;2022-10-24T13:37:11;25.20;71.60
62154;DHT22;48140;45.486;9.226;2022-10-24T13:40:17;25.10;72.60
62154;DHT22;48140;45.486;9.226;2022-10-24T13:48:15;26.30;69.30
62154;DHT22;48140;45.486;9.226;2022-10-24T13:53:28;28.30;62.30
62154;DHT22;48140;45.486;9.226;2022-10-24T13:56:00;29.30;58.90
62154;DHT22;48140;45.486;9.226;2022-10-24T13:58:35;29.60;56.10
62154;DHT22;48140;45.486;9.226;2022-10-24T14:01:04;29.20;57.20
62154;DHT22;48140;45.486;9.226;2022-10-24T14:03:31;28.60;59.00
62154;DHT22;48140;45.486;9.226;2022-10-24T14:06:00;28.00;61.00
62154;DHT22;48140;45.486;9.226;2022-10-24T14:08:34;27.30;62.70
62154;DHT22;48140;45.486;9.226;2022-10-24T14:11:01;27.00;65.00
62154;DHT22;48140;45.486;9.226;2022-10-24T14:13:28;26.90;65.00
62154;DHT22;48140;45.486;9.226;2022-10-24T14:15:56;26.80;65.60
62154;DHT22;48140;45.486;9.226;2022-10-24T14:18:22;26.60;66.20
62154;DHT22;48140;45.486;9.226;2022-10-24T14:20:52;26.60;65.90
62154;DHT22;48140;45.486;9.226;2022-10-24T14:23:28;26.80;65.40
62154;DHT22;48140;45.486;9.226;2022-10-24T14:28:54;26.20;68.00
62154;DHT22;48140;45.486;9.226;2022-10-24T14:31:29;25.90;68.20
62154;DHT22;48140;45.486;9.226;2022-10-24T14:33:59;25.80;68.90
62154;DHT22;48140;45.486;9.226;2022-10-24T14:36:33;25.50;69.30
62154;DHT22;48140;45.486;9.226;2022-10-24T14:39:02;25.50;70.10
62154;DHT22;48140;45.486;9.226;2022-10-24T14:41:32;25.40;69.90
62154;DHT22;48140;45.486;9.226;2022-10-24T14:43:58;25.30;70.70
62154;DHT22;48140;45.486;9.226;2022-10-24T14:46:32;25.10;70.90
62154;DHT22;48140;45.486;9.226;2022-10-24T14:51:42;25.00;72.10
62154;DHT22;48140;45.486;9.226;2022-10-24T14:54:14;25.10;71.50
62154;DHT22;48140;45.486;9.226;2022-10-24T14:56:44;25.00;72.20
62154;DHT22;48140;45.486;9.226;2022-10-24T15:01:55;24.50;74.00
62154;DHT22;48140;45.486;9.226;2022-10-24T15:04:28;24.40;74.40
62154;DHT22;48140;45.486;9.226;2022-10-24T15:06:57;24.30;75.30
62154;DHT22;48140;45.486;9.226;2022-10-24T15:09:36;24.20;76.00
62154;DHT22;48140;45.486;9.226;2022-10-24T15:12:14;24.00;76.50
62154;DHT22;48140;45.486;9.226;2022-10-24T15:14:43;23.90;77.50
62154;DHT22;48140;45.486;9.226;2022-10-24T15:19:48;23.60;78.50
62154;DHT22;48140;45.486;9.226;2022-10-24T15:22:26;23.50;79.00
62154;DHT22;48140;45.486;9.226;2022-10-24T15:24:52;23.50;79.50
62154;DHT22;48140;45.486;9.226;2022-10-24T15:27:28;23.40;80.40
62154;DHT22;48140;45.486;9.226;2022-10-24T15:29:57;23.40;81.00
62154;DHT22;48140;45.486;9.226;2022-10-24T15:32:22;23.30;81.10
62154;DHT22;48140;45.486;9.226;2022-10-24T15:34:54;23.30;81.70
62154;DHT22;48140;45.486;9.226;2022-10-24T15:37:23;23.20;82.40
62154;DHT22;48140;45.486;9.226;2022-10-24T15:39:49;23.20;82.60
62154;DHT22;48140;45.486;9.226;2022-10-24T15:42:15;23.10;83.10
62154;DHT22;48140;45.486;9.226;2022-10-24T15:44:40;23.00;83.70
62154;DHT22;48140;45.486;9.226;2022-10-24T15:47:06;23.40;84.30
62154;DHT22;48140;45.486;9.226;2022-10-24T15:49:35;22.90;84.40
62154;DHT22;48140;45.486;9.226;2022-10-24T15:52:01;22.70;84.70
62154;DHT22;48140;45.486;9.226;2022-10-24T15:54:29;22.80;85.00
62154;DHT22;48140;45.486;9.226;2022-10-24T15:56:56;22.70;85.30
62154;DHT22;48140;45.486;9.226;2022-10-24T15:59:32;22.70;85.30
62154;DHT22;48140;45.486;9.226;2022-10-24T16:01:58;22.70;85.70
62154;DHT22;48140;45.486;9.226;2022-10-24T16:04:27;22.70;85.60
62154;DHT22;48140;45.486;9.226;2022-10-24T16:06:56;22.70;86.00
62154;DHT22;48140;45.486;9.226;2022-10-24T16:09:23;22.90;86.50
62154;DHT22;48140;45.486;9.226;2022-10-24T16:11:51;22.70;86.10
62154;DHT22;48140;45.486;9.226;2022-10-24T16:14:18;22.60;86.20
62154;DHT22;48140;45.486;9.226;2022-10-24T16:16:44;22.60;86.20
62154;DHT22;48140;45.486;9.226;2022-10-24T16:19:10;22.60;86.40
62154;DHT22;48140;45.486;9.226;2022-10-24T16:21:35;22.50;86.50
62154;DHT22;48140;45.486;9.226;2022-10-24T16:24:01;22.50;86.70
62154;DHT22;48140;45.486;9.226;2022-10-24T16:26:26;22.40;86.80
62154;DHT22;48140;45.486;9.226;2022-10-24T16:28:52;22.40;87.20
62154;DHT22;48140;45.486;9.226;2022-10-24T16:31:18;22.40;87.20
62154;DHT22;48140;45.486;9.226;2022-10-24T16:33:46;22.30;87.30
62154;DHT22;48140;45.486;9.226;2022-10-24T16:36:13;22.30;87.40
62154;DHT22;48140;45.486;9.226;2022-10-24T16:38:39;22.30;87.50
62154;DHT22;48140;45.486;9.226;2022-10-24T16:41:05;22.30;87.50
62154;DHT22;48140;45.486;9.226;2022-10-24T16:43:30;22.30;87.60
62154;DHT22;48140;45.486;9.226;2022-10-24T16:45:57;22.30;87.70
62154;DHT22;48140;45.486;9.226;2022-10-24T16:48:23;22.30;87.50
62154;DHT22;48140;45.486;9.226;2022-10-24T16:50:49;22.30;87.60
62154;DHT22;48140;45.486;9.226;2022-10-24T16:53:14;22.30;87.50
62154;DHT22;48140;45.486;9.226;2022-10-24T16:55:46;22.30;87.80
62154;DHT22;48140;45.486;9.226;2022-10-24T16:58:11;22.30;87.50
62154;DHT22;48140;45.486;9.226;2022-10-24T17:00:37;22.30;87.70
62154;DHT22;48140;45.486;9.226;2022-10-24T17:03:02;22.30;88.10
62154;DHT22;48140;45.486;9.226;2022-10-24T17:05:36;22.20;88.40
62154;DHT22;48140;45.486;9.226;2022-10-24T17:08:02;22.20;87.70
62154;DHT22;48140;45.486;9.226;2022-10-24T17:10:27;22.20;87.50
62154;DHT22;48140;45.486;9.226;2022-10-24T17:12:53;22.20;87.90
62154;DHT22;48140;45.486;9.226;2022-10-24T17:15:20;22.20;88.30
62154;DHT22;48140;45.486;9.226;2022-10-24T17:17:48;22.10;88.70
62154;DHT22;48140;45.486;9.226;2022-10-24T17:20:14;21.80;88.50
62154;DHT22;48140;45.486;9.226;2022-10-24T17:22:42;22.10;88.80
62154;DHT22;48140;45.486;9.226;2022-10-24T17:25:16;22.10;88.50
62154;DHT22;48140;45.486;9.226;2022-10-24T17:27:42;22.10;88.80
62154;DHT22;48140;45.486;9.226;2022-10-24T17:30:11;22.10;88.30
62154;DHT22;48140;45.486;9.226;2022-10-24T17:32:38;22.00;88.40
62154;DHT22;48140;45.486;9.226;2022-10-24T17:35:04;22.00;89.00
62154;DHT22;48140;45.486;9.226;2022-10-24T17:37:47;21.90;89.90
62154;DHT22;48140;45.486;9.226;2022-10-24T17:40:19;21.90;89.70
62154;DHT22;48140;45.486;9.226;2022-10-24T17:42:46;21.90;90.70
62154;DHT22;48140;45.486;9.226;2022-10-24T17:45:13;21.90;90.20
62154;DHT22;48140;45.486;9.226;2022-10-24T17:47:39;21.80;90.20
62154;DHT22;48140;45.486;9.226;2022-10-24T17:50:04;21.80;90.20
62154;DHT22;48140;45.486;9.226;2022-10-24T17:52:33;21.80;90.00
62154;DHT22;48140;45.486;9.226;2022-10-24T17:54:59;21.80;90.00
62154;DHT22;48140;45.486;9.226;2022-10-24T17:57:24;21.80;90.10
62154;DHT22;48140;45.486;9.226;2022-10-24T17:59:49;21.80;90.10
62154;DHT22;48140;45.486;9.226;2022-10-24T18:02:15;21.80;90.70
62154;DHT22;48140;45.486;9.226;2022-10-24T18:04:41;21.70;90.10
62154;DHT22;48140;45.486;9.226;2022-10-24T18:07:09;21.70;90.10
62154;DHT22;48140;45.486;9.226;2022-10-24T18:09:34;21.70;90.30
62154;DHT22;48140;45.486;9.226;2022-10-24T18:12:03;21.60;90.30
62154;DHT22;48140;45.486;9.226;2022-10-24T18:14:29;21.60;90.40
62154;DHT22;48140;45.486;9.226;2022-10-24T18:16:54;21.60;90.60
62154;DHT22;48140;45.486;9.226;2022-10-24T18:19:20;21.60;90.50
62154;DHT22;48140;45.486;9.226;2022-10-24T18:21:49;21.60;90.50
62154;DHT22;48140;45.486;9.226;2022-10-24T18:24:14;21.50;90.70
62154;DHT22;48140;45.486;9.226;2022-10-24T18:26:40;21.60;90.60
62154;DHT22;48140;45.486;9.226;2022-10-24T18:34:16;21.50;90.70
62154;DHT22;48140;45.486;9.226;2022-10-24T18:36:42;21.50;90.60
62154;DHT22;48140;45.486;9.226;2022-10-24T18:39:09;21.50;90.90
62154;DHT22;48140;45.486;9.226;2022-10-24T18:41:37;21.50;90.90
62154;DHT22;48140;45.486;9.226;2022-10-24T18:44:12;21.50;90.80
62154;DHT22;48140;45.486;9.226;2022-10-24T18:46:41;21.40;90.90
62154;DHT22;48140;45.486;9.226;2022-10-24T18:49:07;21.40;91.00
62154;DHT22;48140;45.486;9.226;2022-10-24T18:51:34;21.40;91.20
62154;DHT22;48140;45.486;9.226;2022-10-24T18:54:03;21.40;91.40
62154;DHT22;48140;45.486;9.226;2022-10-24T18:56:33;21.40;91.40
62154;DHT22;48140;45.486;9.226;2022-10-24T18:58:58;21.30;91.40
62154;DHT22;48140;45.486;9.226;2022-10-24T19:01:25;21.30;91.50
62154;DHT22;48140;45.486;9.226;2022-10-24T19:03:54;21.40;91.70
62154;DHT22;48140;45.486;9.226;2022-10-24T19:06:24;21.40;91.80
62154;DHT22;48140;45.486;9.226;2022-10-24T19:08:50;21.30;91.60
62154;DHT22;48140;45.486;9.226;2022-10-24T19:11:15;21.30;91.70
62154;DHT22;48140;45.486;9.226;2022-10-24T19:13:41;21.30;91.70
62154;DHT22;48140;45.486;9.226;2022-10-24T19:16:10;21.30;91.80
62154;DHT22;48140;45.486;9.226;2022-10-24T19:18:36;21.20;91.90
62154;DHT22;48140;45.486;9.226;2022-10-24T19:21:02;21.20;91.80
62154;DHT22;48140;45.486;9.226;2022-10-24T19:23:29;21.20;91.90
62154;DHT22;48140;45.486;9.226;2022-10-24T19:25:55;21.20;91.90
62154;DHT22;48140;45.486;9.226;2022-10-24T19:28:20;21.30;95.30